CheckWX is a tool to help pilots better visualize weather data.  It is not intended as a substitute for an official pre-flight weather briefing.

12:28:37 UTC

LELO TAF
Logroño-Agoncillo Airport
Logroño, Spain
TAF LELO 261100Z 2612/2621 27012KT CAVOK BECMG 2612/2614 VRB05KT PROB40 TEMPO 2614/2618 04010KT

Mar-26@
12:00 UTC

Mar-26 @ 12:00 UTC

Mar-26@
21:00 UTC

Mar-26 @ 21:00 UTC

TAF LELO 261100Z 2612/2621 27012KT CAVOK
Wind
  • 270° at 12 KTS
Conditions
No significant weather
Cloud Levels
  • No significant clouds

Mar-26@
12:00 UTC

Mar-26 @ 12:00 UTC

Mar-26@
21:00 UTC

Mar-26 @ 21:00 UTC

BECMG 2612/2614 VRB05KT

Becoming

Becoming Conditions expected by Tue, Mar 26, 2019 @ 14:00 UTC

Wind
  • Variable at 5 KTS
Conditions
No significant weather
Cloud Levels
  • No significant clouds

Mar-26@
14:00 UTC

Mar-26 @ 14:00 UTC

Mar-26@
18:00 UTC

Mar-26 @ 18:00 UTC

PROB40 TEMPO 2614/2618 04010KT

Temporary - 40% Likelihood

Temporary - 40% Likelihood during this time.

Wind
  • 040° at 10 KTS